createdAt,value
2022-11-01T00:07:48.767Z,78.00
2022-11-01T00:11:16.102Z,77.90
2022-11-01T00:24:54.870Z,78.50
2022-11-01T00:28:18.741Z,78.20
2022-11-01T00:45:20.168Z,78.20
2022-11-01T00:48:43.716Z,78.30
2022-11-01T01:02:20.065Z,78.00
2022-11-01T01:09:08.663Z,78.10
2022-11-01T01:26:11.877Z,78.00
2022-11-01T01:29:37.454Z,78.10
2022-11-01T01:33:00.977Z,77.80
2022-11-01T01:43:14.153Z,78.10
2022-11-01T01:46:37.630Z,78.00
2022-11-01T01:50:07.655Z,77.80
2022-11-01T01:53:35.678Z,77.80
2022-11-01T01:56:59.975Z,77.90
2022-11-01T02:00:25.402Z,77.90
2022-11-01T02:10:38.101Z,79.10
2022-11-01T02:14:02.904Z,79.30
2022-11-01T02:17:40.485Z,79.30
2022-11-01T02:21:44.375Z,79.50
2022-11-01T02:25:31.616Z,79.50
2022-11-01T02:29:15.445Z,79.50
2022-11-01T02:33:04.480Z,79.70
2022-11-01T02:36:38.896Z,79.80
2022-11-01T02:40:09.516Z,79.80
2022-11-01T02:43:43.355Z,80.60
2022-11-01T02:47:08.321Z,80.70
2022-11-01T02:50:39.842Z,79.80
2022-11-01T02:54:07.889Z,80.40
2022-11-01T02:57:36.266Z,79.90
2022-11-01T03:00:59.728Z,79.80
2022-11-01T03:04:23.514Z,80.00
2022-11-01T03:07:57.952Z,80.00
2022-11-01T03:11:26.398Z,80.10
2022-11-01T03:14:58.822Z,80.00
2022-11-01T03:18:33.518Z,80.60
2022-11-01T03:22:07.977Z,79.80
2022-11-01T03:25:39.990Z,79.60
2022-11-01T03:29:09.314Z,79.60
2022-11-01T03:32:39.609Z,79.70
2022-11-01T03:36:13.467Z,80.40
2022-11-01T03:39:44.598Z,79.90
2022-11-01T03:43:16.391Z,80.60
2022-11-01T03:46:40.111Z,80.90
2022-11-01T03:50:15.842Z,81.00
2022-11-01T03:53:39.680Z,80.90
2022-11-01T03:57:03.109Z,81.10
2022-11-01T04:00:31.144Z,81.00
2022-11-01T04:03:54.557Z,81.00
2022-11-01T04:07:17.970Z,78.40
2022-11-01T04:10:42.030Z,81.00
2022-11-01T04:14:22.355Z,80.70
2022-11-01T04:18:04.734Z,80.70
2022-11-01T04:21:31.267Z,80.70
2022-11-01T04:24:54.701Z,81.30
2022-11-01T04:28:18.443Z,81.70
2022-11-01T04:31:42.051Z,81.80
2022-11-01T04:35:11.389Z,82.00
2022-11-01T04:38:34.857Z,82.00
2022-11-01T04:41:58.282Z,82.10
2022-11-01T04:45:22.077Z,82.20
2022-11-01T04:48:45.599Z,81.80
2022-11-01T04:52:10.424Z,82.00
2022-11-01T04:55:34.391Z,81.80
2022-11-01T04:58:58.417Z,81.70
2022-11-01T05:02:24.332Z,81.60
2022-11-01T05:05:47.893Z,80.50
2022-11-01T05:09:12.678Z,81.20
2022-11-01T05:12:36.495Z,80.70
2022-11-01T05:16:18.926Z,80.70
2022-11-01T05:19:43.446Z,80.20
2022-11-01T05:23:07.112Z,80.20
2022-11-01T05:26:32.026Z,80.10
2022-11-01T05:29:55.555Z,79.70
2022-11-01T05:33:19.159Z,79.90
2022-11-01T05:36:42.647Z,79.60
2022-11-01T05:40:07.912Z,79.70
2022-11-01T05:43:32.715Z,79.50
2022-11-01T05:46:56.231Z,79.00
2022-11-01T05:50:19.995Z,79.10
2022-11-01T05:53:43.436Z,79.00
2022-11-01T05:57:07.207Z,79.00
2022-11-01T06:00:32.557Z,78.90
2022-11-01T06:03:58.210Z,78.50
2022-11-01T06:07:21.874Z,78.60
2022-11-01T06:10:45.363Z,78.50
2022-11-01T06:14:12.862Z,78.50
2022-11-01T06:17:37.694Z,78.30
2022-11-01T06:21:01.254Z,78.50
2022-11-01T06:24:25.241Z,78.60
2022-11-01T06:27:49.296Z,78.60
2022-11-01T06:31:13.714Z,78.70
2022-11-01T06:34:42.312Z,78.90
2022-11-01T06:38:10.185Z,79.00
2022-11-01T06:41:34.322Z,79.00
2022-11-01T06:44:57.874Z,79.10
2022-11-01T06:48:21.366Z,79.10
2022-11-01T06:51:46.202Z,79.20
2022-11-01T06:55:10.371Z,79.40
2022-11-01T06:58:33.798Z,79.50
2022-11-01T07:01:57.473Z,79.50
2022-11-01T07:05:20.971Z,79.60
2022-11-01T07:08:45.851Z,79.70
2022-11-01T07:12:09.426Z,79.80
2022-11-01T07:15:33.543Z,80.00
2022-11-01T07:18:57.203Z,80.10
2022-11-01T07:22:20.775Z,80.80
2022-11-01T07:25:45.830Z,80.20
2022-11-01T07:29:09.279Z,80.30
2022-11-01T07:32:36.269Z,80.30
2022-11-01T07:36:03.054Z,80.40
2022-11-01T07:39:26.504Z,80.60
2022-11-01T07:42:51.303Z,80.70
2022-11-01T07:46:14.852Z,80.60
2022-11-01T07:49:38.270Z,80.60
2022-11-01T07:53:02.445Z,80.50
2022-11-01T07:56:25.901Z,80.50
2022-11-01T07:59:50.751Z,80.60
2022-11-01T08:03:16.918Z,80.70
2022-11-01T08:06:40.819Z,81.10
2022-11-01T08:10:05.075Z,81.30
2022-11-01T08:13:29.635Z,81.50
2022-11-01T08:16:57.886Z,81.50
2022-11-01T08:20:21.351Z,81.70
2022-11-01T08:23:44.950Z,82.00
2022-11-01T08:27:08.473Z,82.10
2022-11-01T08:30:32.970Z,82.00
2022-11-01T08:33:57.874Z,82.00
2022-11-01T08:37:21.420Z,81.90
2022-11-01T08:40:44.869Z,81.80
2022-11-01T08:44:08.316Z,81.90
2022-11-01T08:47:31.773Z,81.90
2022-11-01T08:50:56.613Z,82.10
2022-11-01T08:54:20.558Z,81.80
2022-11-01T08:57:44.157Z,81.80
2022-11-01T09:01:07.651Z,82.00
2022-11-01T09:04:31.269Z,81.90
2022-11-01T09:08:00.343Z,81.40
2022-11-01T09:11:26.487Z,80.70
2022-11-01T09:14:50.025Z,81.10
2022-11-01T09:18:13.512Z,81.20
2022-11-01T09:21:37.070Z,81.10
2022-11-01T09:25:01.909Z,80.90
2022-11-01T09:28:27.827Z,80.80
2022-11-01T09:31:54.459Z,80.80
2022-11-01T09:35:18.567Z,81.00
2022-11-01T09:38:42.013Z,81.20
2022-11-01T09:42:14.379Z,81.20
2022-11-01T09:45:38.355Z,81.00
2022-11-01T09:49:05.559Z,81.60
2022-11-01T09:52:29.229Z,81.50
2022-11-01T09:56:04.194Z,81.10
2022-11-01T09:59:38.283Z,81.10
2022-11-01T10:03:33.694Z,80.40
2022-11-01T10:07:08.432Z,79.90
2022-11-01T10:10:40.609Z,80.20
2022-11-01T10:14:20.057Z,80.00
2022-11-01T10:17:53.704Z,80.30
2022-11-01T10:21:21.658Z,80.00
2022-11-01T10:24:56.931Z,81.00
2022-11-01T10:28:30.546Z,80.10
2022-11-01T10:31:56.070Z,80.30
2022-11-01T10:35:28.914Z,79.80
2022-11-01T10:42:46.719Z,77.30
2022-11-01T10:46:18.709Z,78.10
2022-11-01T10:50:05.508Z,79.10
2022-11-01T10:53:44.433Z,79.00
2022-11-01T10:57:15.099Z,77.30
2022-11-01T11:00:42.215Z,76.10
2022-11-01T11:04:11.468Z,73.40
2022-11-01T11:07:35.167Z,72.10
2022-11-01T11:11:06.401Z,73.40
2022-11-01T11:14:34.803Z,69.60
2022-11-01T11:18:03.417Z,70.40
2022-11-01T11:21:28.136Z,70.80
2022-11-01T11:24:52.876Z,70.90
2022-11-01T11:28:27.768Z,70.90
2022-11-01T11:31:59.148Z,70.00
2022-11-01T11:35:24.478Z,71.20
2022-11-01T11:38:51.245Z,71.80
2022-11-01T11:42:19.177Z,71.90
2022-11-01T11:45:44.276Z,71.90
2022-11-01T11:49:27.207Z,72.80
2022-11-01T11:52:57.791Z,73.20
2022-11-01T11:56:22.717Z,73.40
2022-11-01T11:59:53.365Z,73.40
2022-11-01T12:03:19.878Z,72.80
2022-11-01T12:06:46.349Z,72.70
2022-11-01T12:10:34.022Z,71.90
2022-11-01T12:14:06.749Z,69.50
2022-11-01T12:17:36.483Z,71.20
2022-11-01T12:21:01.462Z,71.30
2022-11-01T12:24:28.297Z,70.70
2022-11-01T12:28:05.171Z,70.40
2022-11-01T12:31:31.695Z,68.80
2022-11-01T12:35:01.856Z,70.10
2022-11-01T12:38:48.191Z,69.60
2022-11-01T12:42:20.055Z,68.30
2022-11-01T12:45:50.989Z,68.20
2022-11-01T12:49:29.971Z,68.90
2022-11-01T12:52:59.794Z,69.50
2022-11-01T12:56:25.015Z,70.70
2022-11-01T12:59:49.021Z,70.90
2022-11-01T13:03:30.343Z,70.40
2022-11-01T13:07:22.062Z,69.40
2022-11-01T13:10:49.076Z,70.10
2022-11-01T13:14:37.243Z,71.10
2022-11-01T13:18:15.339Z,70.90
2022-11-01T13:21:49.630Z,71.10
2022-11-01T13:25:23.552Z,70.80
2022-11-01T13:29:03.881Z,70.30
2022-11-01T13:32:36.761Z,70.50
2022-11-01T13:36:11.254Z,70.70
2022-11-01T13:39:55.285Z,69.60
2022-11-01T13:43:23.461Z,70.90
2022-11-01T13:47:17.951Z,71.30
2022-11-01T13:51:16.672Z,70.80
2022-11-01T13:54:50.568Z,70.40
2022-11-01T13:58:19.268Z,70.80
2022-11-01T14:01:42.883Z,70.40
2022-11-01T14:08:39.168Z,69.60
2022-11-01T14:12:36.105Z,70.40
2022-11-01T14:16:23.763Z,69.40
2022-11-01T14:19:48.237Z,69.20
2022-11-01T14:30:58.558Z,68.80
2022-11-01T14:34:29.991Z,70.10
2022-11-01T14:37:57.307Z,70.40
2022-11-01T14:41:23.918Z,70.70
2022-11-01T14:48:24.658Z,69.20
2022-11-01T14:51:57.634Z,70.20
2022-11-01T15:02:15.645Z,69.50
2022-11-01T15:09:21.825Z,68.80
2022-11-01T15:12:49.343Z,70.20
2022-11-01T15:19:45.233Z,70.10
2022-11-01T15:26:36.278Z,69.50
2022-11-01T15:33:27.842Z,69.30
2022-11-01T15:36:54.072Z,70.60
2022-11-01T15:40:30.599Z,70.70
2022-11-01T15:43:56.129Z,70.20
2022-11-01T15:47:25.810Z,70.90
2022-11-01T15:50:55.564Z,71.00
2022-11-01T15:54:37.682Z,71.00
2022-11-01T15:58:06.989Z,70.90
2022-11-01T16:01:31.240Z,71.00
2022-11-01T16:04:56.919Z,70.70
2022-11-01T16:11:50.693Z,69.40
2022-11-01T16:29:44.188Z,68.70
2022-11-01T16:33:29.662Z,68.80
2022-11-01T16:43:53.679Z,69.10
2022-11-01T16:47:19.310Z,69.20
2022-11-01T17:04:28.717Z,69.60
2022-11-01T17:21:40.213Z,69.80
2022-11-01T17:25:05.245Z,69.80
2022-11-01T17:42:13.751Z,70.20
2022-11-01T17:45:38.650Z,70.40
2022-11-01T18:06:09.116Z,70.70
2022-11-01T18:24:13.582Z,70.50
2022-11-01T18:34:46.985Z,70.50
2022-11-01T19:13:18.168Z,70.80
2022-11-01T19:20:23.699Z,70.90
2022-11-01T19:23:53.616Z,70.90
2022-11-01T19:48:14.331Z,71.50
2022-11-01T20:29:31.394Z,71.30
2022-11-01T20:36:30.776Z,71.10
2022-11-01T20:50:17.460Z,70.70
2022-11-01T21:21:45.252Z,68.90
2022-11-01T21:39:22.002Z,69.30
2022-11-01T21:53:05.199Z,69.60
2022-11-01T21:59:54.094Z,69.80
2022-11-01T22:33:58.931Z,70.50
2022-11-01T22:58:33.330Z,70.20
2022-11-01T23:16:28.461Z,70.40
2022-11-01T23:19:56.594Z,70.40
2022-11-01T23:37:03.527Z,70.40
2022-11-01T23:40:33.732Z,70.40
2022-11-01T23:44:02.498Z,70.40
